Time;durP1;ratioP1;P1;durP2;ratioP2;P2;SDS_P1;SDS_P2;PMS_P1;PMS_P2;Temp;Humidity;BMP_temperature;BMP_pressure;BME280_temperature;BME280_humidity;BME280_pressure;Samples;Min_cycle;Max_cycle;Signal;HPM_P1;HPM_P2
2022/12/28 00:00:32;;;;;;;;;;;;;;;;;;5036611;28;20000;-27
2022/12/28 00:02:58;;;;;;;;;;;;;;;;;;5035934;28;19917;-26
2022/12/28 00:05:24;;;;;;;;;;;;;;;;;;5036592;28;20308;-27
2022/12/28 00:07:50;;;;;;;;;;;;;;;;;;5036433;28;19909;-27
2022/12/28 00:10:16;;;;;;;;;;;;;;;;;;5036122;28;19913;-31
2022/12/28 00:12:42;;;;;;;;;;;;;;;;;;5036273;28;19909;-31
2022/12/28 00:15:08;;;;;;;;;;;;;;;;;;5036247;28;19921;-26
2022/12/28 00:17:34;;;;;;;;;;;;;;;;;;5035949;28;19913;-26
2022/12/28 00:20:00;;;;;;;;;;;;;;;;;;5036091;28;20320;-25
2022/12/28 00:22:26;;;;;;;;;;;;;;;;;;5035705;28;20244;-27
2022/12/28 00:24:52;;;;;;;;;;;;;;;;;;5035850;28;20295;-24
2022/12/28 00:27:18;;;;;;;;;;;;;;;;;;5034728;28;19913;-29
2022/12/28 00:29:44;;;;;;;;;;;;;;;;;;5035964;28;19952;-26
2022/12/28 00:32:10;;;;;;;;;;;;;;;;;;5035900;28;20367;-30
2022/12/28 00:34:36;;;;;;;;;;;;;;;;;;5035707;28;20279;-25
2022/12/28 00:37:02;;;;;;;;;;;;;;;;;;5035673;28;19924;-24
2022/12/28 00:39:28;;;;;;;;;;;;;;;;;;5035634;28;19967;-30
2022/12/28 00:41:54;;;;;;;;;;;;;;;;;;5034449;28;19913;-32
2022/12/28 00:44:20;;;;;;;;;;;;;;;;;;5035075;28;20016;-27
2022/12/28 00:46:46;;;;;;;;;;;;;;;;;;5035648;28;20368;-31
2022/12/28 00:49:12;;;;;;;;;;;;;;;;;;5035407;28;19909;-27
2022/12/28 00:51:38;;;;;;;;;;;;;;;;;;5035338;28;19919;-27
2022/12/28 00:54:04;;;;;;;;;;;;;;;;;;5035298;28;19909;-27
2022/12/28 00:56:30;;;;;;;;;;;;;;;;;;5035242;28;19913;-27
2022/12/28 00:58:56;;;;;;;;;;;;;;;;;;5035526;28;19913;-29
2022/12/28 01:01:22;;;;;;;;;;;;;;;;;;5035219;28;19979;-27
2022/12/28 01:03:48;;;;;;;;;;;;;;;;;;5034876;28;19921;-25
2022/12/28 01:06:14;;;;;;;;;;;;;;;;;;5035104;28;20368;-26
2022/12/28 01:08:40;;;;;;;;;;;;;;;;;;5035400;28;20336;-27
2022/12/28 01:11:07;;;;;;;;;;;;;;;;;;5035100;28;19921;-26
2022/12/28 01:13:33;;;;;;;;;;;;;;;;;;5034038;28;19924;-28
2022/12/28 01:15:59;;;;;;;;;;;;;;;;;;5034956;28;20340;-28
2022/12/28 01:18:25;;;;;;;;;;;;;;;;;;5034868;28;19921;-28
2022/12/28 01:20:51;;;;;;;;;;;;;;;;;;5034912;28;20304;-25
2022/12/28 01:23:17;;;;;;;;;;;;;;;;;;5034724;28;19917;-29
2022/12/28 01:25:43;;;;;;;;;;;;;;;;;;5034856;28;19917;-28
2022/12/28 01:28:09;;;;;;;;;;;;;;;;;;5035065;28;20099;-27
2022/12/28 01:30:34;;;;;;;;;;;;;;;;;;5034796;28;20298;-27
2022/12/28 01:33:00;;;;;;;;;;;;;;;;;;5034954;28;19923;-32
2022/12/28 01:35:27;;;;;;;;;;;;;;;;;;5034929;28;19936;-33
2022/12/28 01:37:53;;;;;;;;;;;;;;;;;;5034906;28;19913;-28
2022/12/28 01:40:19;;;;;;;;;;;;;;;;;;5034611;28;20436;-27
2022/12/28 01:42:44;;;;;;;;;;;;;;;;;;5034702;28;19929;-33
2022/12/28 01:45:10;;;;;;;;;;;;;;;;;;5033650;28;19963;-29
2022/12/28 01:47:36;;;;;;;;;;;;;;;;;;5034602;28;19913;-25
2022/12/28 01:50:02;;;;;;;;;;;;;;;;;;5033627;28;20256;-24
2022/12/28 01:52:28;;;;;;;;;;;;;;;;;;5034752;28;19909;-29
2022/12/28 01:54:54;;;;;;;;;;;;;;;;;;5035291;28;20372;-28
2022/12/28 01:57:20;;;;;;;;;;;;;;;;;;5038662;28;19919;-28
2022/12/28 01:59:46;;;;;;;;;;;;;;;;;;5038821;28;19928;-27
2022/12/28 02:02:12;;;;;;;;;;;;;;;;;;5038341;28;19924;-28
2022/12/28 02:04:38;;;;;;;;;;;;;;;;;;5038253;28;20007;-25
2022/12/28 02:07:04;;;;;;;;;;;;;;;;;;5038552;28;20417;-30
2022/12/28 02:09:30;;;;;;;;;;;;;;;;;;5038383;28;19913;-35
2022/12/28 02:11:56;;;;;;;;;;;;;;;;;;5038748;28;19917;-25
2022/12/28 02:14:23;;;;;;;;;;;;;;;;;;5038581;28;19913;-26
2022/12/28 02:16:49;;;;;;;;;;;;;;;;;;5038583;28;20252;-28
2022/12/28 02:19:15;;;;;;;;;;;;;;;;;;5038316;28;19920;-28
2022/12/28 02:21:41;;;;;;;;;;;;;;;;;;5038424;28;19913;-25
2022/12/28 02:24:06;;;;;;;;;;;;;;;;;;5038031;28;19913;-24
2022/12/28 02:26:33;;;;;;;;;;;;;;;;;;5038400;28;19913;-27
2022/12/28 02:28:59;;;;;;;;;;;;;;;;;;5038100;28;19913;-27
2022/12/28 02:31:25;;;;;;;;;;;;;;;;;;5038075;28;20004;-25
2022/12/28 02:33:50;;;;;;;;;;;;;;;;;;5037836;28;20299;-31
2022/12/28 02:36:16;;;;;;;;;;;;;;;;;;5038261;28;19999;-29
2022/12/28 02:38:42;;;;;;;;;;;;;;;;;;5036830;28;19913;-28
2022/12/28 02:41:08;;;;;;;;;;;;;;;;;;5037875;28;19909;-28
2022/12/28 02:43:34;;;;;;;;;;;;;;;;;;5037597;28;19917;-30
2022/12/28 02:51:30;;;;;;;;;;;;;;;;;;5037728;28;19987;-31
2022/12/28 02:53:56;;;;;;;;;;;;;;;;;;5037748;28;19917;-25
2022/12/28 02:56:22;;;;;;;;;;;;;;;;;;5037582;28;19910;-27
2022/12/28 02:58:47;;;;;;;;;;;;;;;;;;5037667;28;20007;-27
2022/12/28 03:01:13;;;;;;;;;;;;;;;;;;5036397;28;20016;-30
2022/12/28 03:03:39;;;;;;;;;;;;;;;;;;5036990;28;19921;-28
2022/12/28 03:08:50;;;;;;;;;;;;;;;;;;5037401;28;19924;-29
2022/12/28 03:11:16;;;;;;;;;;;;;;;;;;5037213;28;20352;-28
2022/12/28 03:13:42;;;;;;;;;;;;;;;;;;5037245;28;19938;-26
2022/12/28 03:16:08;;;;;;;;;;;;;;;;;;5037259;28;19999;-26
2022/12/28 03:32:18;;;;;;;;;;;;;;;;;;5037213;28;19956;-27
2022/12/28 03:34:44;;;;;;;;;;;;;;;;;;5037005;28;19917;-27
2022/12/28 03:37:10;;;;;;;;;;;;;;;;;;5036748;28;20352;-26
2022/12/28 03:39:36;;;;;;;;;;;;;;;;;;5036978;28;19995;-28
2022/12/28 03:44:47;;;;;;;;;;;;;;;;;;5036757;28;19962;-31
2022/12/28 03:47:13;;;;;;;;;;;;;;;;;;5035631;28;19913;-28
2022/12/28 03:49:39;;;;;;;;;;;;;;;;;;5036919;28;20339;-31
2022/12/28 03:52:05;;;;;;;;;;;;;;;;;;5035556;28;20008;-27
2022/12/28 03:54:31;;;;;;;;;;;;;;;;;;5036872;28;19921;-30
2022/12/28 03:56:57;;;;;;;;;;;;;;;;;;5036719;28;19920;-27
2022/12/28 03:59:23;;;;;;;;;;;;;;;;;;5036377;28;19948;-29
2022/12/28 04:01:49;;;;;;;;;;;;;;;;;;5036538;28;19916;-28
2022/12/28 04:04:15;;;;;;;;;;;;;;;;;;5035997;28;20362;-24
2022/12/28 04:06:42;;;;;;;;;;;;;;;;;;5036193;28;19996;-28
2022/12/28 04:09:08;;;;;;;;;;;;;;;;;;5036246;28;19909;-24
2022/12/28 04:11:34;;;;;;;;;;;;;;;;;;5036419;28;19947;-29
2022/12/28 04:14:00;;;;;;;;;;;;;;;;;;5034965;28;19909;-28
2022/12/28 04:16:26;;;;;;;;;;;;;;;;;;5035812;28;19947;-27
2022/12/28 04:18:52;;;;;;;;;;;;;;;;;;5035268;28;19909;-29
2022/12/28 04:21:18;;;;;;;;;;;;;;;;;;5036104;28;20371;-27
2022/12/28 04:23:44;;;;;;;;;;;;;;;;;;5035682;28;19913;-31
2022/12/28 04:26:10;;;;;;;;;;;;;;;;;;5036053;28;19941;-27
2022/12/28 04:28:36;;;;;;;;;;;;;;;;;;5035724;28;19975;-30
2022/12/28 04:31:02;;;;;;;;;;;;;;;;;;5035689;28;19967;-31
2022/12/28 04:33:28;;;;;;;;;;;;;;;;;;5035599;28;20311;-28
2022/12/28 04:35:54;;;;;;;;;;;;;;;;;;5035422;28;19913;-26
2022/12/28 04:38:20;;;;;;;;;;;;;;;;;;5035381;28;19909;-29
2022/12/28 04:40:46;;;;;;;;;;;;;;;;;;5035342;28;19950;-34
2022/12/28 04:43:12;;;;;;;;;;;;;;;;;;5035162;28;19920;-32
2022/12/28 04:45:38;;;;;;;;;;;;;;;;;;5035522;28;19913;-31
2022/12/28 04:48:04;;;;;;;;;;;;;;;;;;5035456;28;19909;-26
2022/12/28 04:50:30;;;;;;;;;;;;;;;;;;5035414;28;20221;-29
2022/12/28 04:52:56;;;;;;;;;;;;;;;;;;5035262;28;19975;-26
2022/12/28 04:55:22;;;;;;;;;;;;;;;;;;5034967;28;20371;-27
2022/12/28 04:57:48;;;;;;;;;;;;;;;;;;5033958;28;19913;-30
2022/12/28 05:00:14;;;;;;;;;;;;;;;;;;5035213;28;19909;-28
2022/12/28 05:02:40;;;;;;;;;;;;;;;;;;5034625;28;19928;-29
2022/12/28 05:05:06;;;;;;;;;;;;;;;;;;5034905;28;19921;-28
2022/12/28 05:07:32;;;;;;;;;;;;;;;;;;5035144;28;19924;-31
2022/12/28 05:09:58;;;;;;;;;;;;;;;;;;5035043;28;20342;-29
2022/12/28 05:12:25;;;;;;;;;;;;;;;;;;5034953;28;19944;-29
2022/12/28 05:14:52;;;;;;;;;;;;;;;;;;5034898;28;19913;-31
2022/12/28 05:17:18;;;;;;;;;;;;;;;;;;5034796;28;19919;-30
2022/12/28 05:19:44;;;;;;;;;;;;;;;;;;5034302;28;20008;-29
2022/12/28 05:22:11;;;;;;;;;;;;;;;;;;5034581;28;19909;-27
2022/12/28 05:24:37;;;;;;;;;;;;;;;;;;5034700;28;19913;-28
2022/12/28 05:27:03;;;;;;;;;;;;;;;;;;5033616;28;20046;-26
2022/12/28 05:29:29;;;;;;;;;;;;;;;;;;5033565;28;19923;-30
2022/12/28 05:31:55;;;;;;;;;;;;;;;;;;5034354;28;20351;-31
2022/12/28 05:34:21;;;;;;;;;;;;;;;;;;5034623;28;19967;-28
2022/12/28 05:36:47;;;;;;;;;;;;;;;;;;5034929;28;20028;-27
2022/12/28 05:39:13;;;;;;;;;;;;;;;;;;5034680;28;20328;-25
2022/12/28 05:41:39;;;;;;;;;;;;;;;;;;5034408;28;19924;-27
2022/12/28 05:44:05;;;;;;;;;;;;;;;;;;5034200;28;19917;-27
2022/12/28 05:46:31;;;;;;;;;;;;;;;;;;5034256;28;19940;-29
2022/12/28 05:48:57;;;;;;;;;;;;;;;;;;5034294;28;19941;-25
2022/12/28 05:51:23;;;;;;;;;;;;;;;;;;5034168;28;19913;-28
2022/12/28 05:53:49;;;;;;;;;;;;;;;;;;5033962;28;19920;-26
2022/12/28 05:56:15;;;;;;;;;;;;;;;;;;5034309;28;19913;-25
2022/12/28 05:58:41;;;;;;;;;;;;;;;;;;5034155;28;19920;-26
2022/12/28 06:01:07;;;;;;;;;;;;;;;;;;5034067;28;19975;-26
2022/12/28 06:03:33;;;;;;;;;;;;;;;;;;5033613;28;19975;-30
2022/12/28 06:05:59;;;;;;;;;;;;;;;;;;5034022;28;19913;-29
2022/12/28 06:08:25;;;;;;;;;;;;;;;;;;5034225;28;19915;-26
2022/12/28 06:10:51;;;;;;;;;;;;;;;;;;5033947;28;19913;-29
2022/12/28 06:13:17;;;;;;;;;;;;;;;;;;5034106;28;20059;-25
2022/12/28 06:15:43;;;;;;;;;;;;;;;;;;5034337;28;20333;-24
2022/12/28 06:18:09;;;;;;;;;;;;;;;;;;5034050;28;19956;-29
2022/12/28 06:20:35;;;;;;;;;;;;;;;;;;5034406;28;19913;-26
2022/12/28 06:23:01;;;;;;;;;;;;;;;;;;5033752;28;19921;-27
2022/12/28 06:25:27;;;;;;;;;;;;;;;;;;5034050;28;19963;-30
2022/12/28 06:27:53;;;;;;;;;;;;;;;;;;5033950;28;19995;-27
2022/12/28 06:30:19;;;;;;;;;;;;;;;;;;5033835;28;19921;-30
2022/12/28 06:32:45;;;;;;;;;;;;;;;;;;5032806;28;19921;-25
2022/12/28 06:35:11;;;;;;;;;;;;;;;;;;5033762;28;19952;-24
2022/12/28 06:37:37;;;;;;;;;;;;;;;;;;5034069;28;19913;-27
2022/12/28 06:40:03;;;;;;;;;;;;;;;;;;5033976;28;20229;-29
2022/12/28 06:42:29;;;;;;;;;;;;;;;;;;5036966;28;19967;-30
2022/12/28 06:44:55;;;;;;;;;;;;;;;;;;5037382;28;20230;-25
2022/12/28 06:47:21;;;;;;;;;;;;;;;;;;5037489;28;19949;-27
2022/12/28 06:49:47;;;;;;;;;;;;;;;;;;5037301;28;19924;-27
2022/12/28 06:52:13;;;;;;;;;;;;;;;;;;5036998;28;19967;-27
2022/12/28 06:54:40;;;;;;;;;;;;;;;;;;5036852;28;19913;-26
2022/12/28 06:57:06;;;;;;;;;;;;;;;;;;5037187;28;19919;-26
2022/12/28 06:59:32;;;;;;;;;;;;;;;;;;5037158;28;19992;-30
2022/12/28 07:01:57;;;;;;;;;;;;;;;;;;5037186;28;19971;-30
2022/12/28 07:04:23;;;;;;;;;;;;;;;;;;5036058;28;20012;-29
2022/12/28 07:06:49;;;;;;;;;;;;;;;;;;5037172;28;19917;-27
2022/12/28 07:09:15;;;;;;;;;;;;;;;;;;5037124;28;19913;-26
2022/12/28 07:11:41;;;;;;;;;;;;;;;;;;5035879;28;19909;-26
2022/12/28 07:14:07;;;;;;;;;;;;;;;;;;5036543;28;19913;-29
2022/12/28 07:16:33;;;;;;;;;;;;;;;;;;5036573;28;19971;-34
2022/12/28 07:18:59;;;;;;;;;;;;;;;;;;5036447;28;19952;-29
2022/12/28 07:21:25;;;;;;;;;;;;;;;;;;5036208;28;19916;-31
2022/12/28 07:23:51;;;;;;;;;;;;;;;;;;5036388;28;19967;-25
2022/12/28 07:26:19;;;;;;;;;;;;;;;;;;5036075;28;19913;-33
2022/12/28 07:28:45;;;;;;;;;;;;;;;;;;5035066;28;19924;-33
2022/12/28 07:31:11;;;;;;;;;;;;;;;;;;5034995;28;20256;-28
2022/12/28 07:33:37;;;;;;;;;;;;;;;;;;5036168;28;19921;-29
2022/12/28 07:36:03;;;;;;;;;;;;;;;;;;5035678;28;19997;-27
2022/12/28 07:38:29;;;;;;;;;;;;;;;;;;5036570;28;19914;-29
2022/12/28 07:40:55;;;;;;;;;;;;;;;;;;5035575;28;19996;-26
2022/12/28 07:43:21;;;;;;;;;;;;;;;;;;5036133;28;20395;-26
2022/12/28 07:45:47;;;;;;;;;;;;;;;;;;5036332;28;20311;-28
2022/12/28 07:48:13;;;;;;;;;;;;;;;;;;5035148;28;19937;-26
2022/12/28 07:50:39;;;;;;;;;;;;;;;;;;5036208;28;19923;-25
2022/12/28 07:53:05;;;;;;;;;;;;;;;;;;5035207;28;20004;-30
2022/12/28 07:55:31;;;;;;;;;;;;;;;;;;5035923;28;19960;-29
2022/12/28 07:57:57;;;;;;;;;;;;;;;;;;5036041;28;19913;-24
2022/12/28 08:00:23;;;;;;;;;;;;;;;;;;5035886;28;20268;-29
2022/12/28 08:02:49;;;;;;;;;;;;;;;;;;5034436;28;20007;-29
2022/12/28 08:05:15;;;;;;;;;;;;;;;;;;5036177;28;19909;-30
2022/12/28 08:07:41;;;;;;;;;;;;;;;;;;5035781;28;19913;-28
2022/12/28 08:10:07;;;;;;;;;;;;;;;;;;5035747;28;20309;-28
2022/12/28 08:12:33;;;;;;;;;;;;;;;;;;5036471;28;19913;-27
2022/12/28 08:15:00;;;;;;;;;;;;;;;;;;5035751;28;20003;-29
2022/12/28 08:17:26;;;;;;;;;;;;;;;;;;5035890;28;20078;-30
2022/12/28 08:19:54;;;;;;;;;;;;;;;;;;5035948;28;19996;-26
2022/12/28 08:22:20;;;;;;;;;;;;;;;;;;5035869;28;20280;-28
2022/12/28 08:24:46;;;;;;;;;;;;;;;;;;5035679;28;19928;-30
2022/12/28 08:27:12;;;;;;;;;;;;;;;;;;5035515;28;20328;-28
2022/12/28 08:29:38;;;;;;;;;;;;;;;;;;5035142;28;19917;-30
2022/12/28 08:32:04;;;;;;;;;;;;;;;;;;5034903;28;20260;-27
2022/12/28 08:34:30;;;;;;;;;;;;;;;;;;5035321;28;20364;-25
2022/12/28 08:36:56;;;;;;;;;;;;;;;;;;5035106;28;20459;-31
2022/12/28 08:39:22;;;;;;;;;;;;;;;;;;5035042;28;19913;-29
2022/12/28 08:41:48;;;;;;;;;;;;;;;;;;5035173;28;20406;-25
2022/12/28 08:44:14;;;;;;;;;;;;;;;;;;5035302;28;19923;-27
2022/12/28 08:46:40;;;;;;;;;;;;;;;;;;5035104;28;19932;-24
2022/12/28 08:49:06;;;;;;;;;;;;;;;;;;5035224;28;19951;-29
2022/12/28 08:51:32;;;;;;;;;;;;;;;;;;5034936;28;20308;-27
2022/12/28 08:53:58;;;;;;;;;;;;;;;;;;5035060;28;19965;-28
2022/12/28 08:56:24;;;;;;;;;;;;;;;;;;5035112;28;19913;-28
2022/12/28 08:58:50;;;;;;;;;;;;;;;;;;5035221;28;19982;-28
2022/12/28 09:01:16;;;;;;;;;;;;;;;;;;5034935;28;19928;-34
2022/12/28 09:03:42;;;;;;;;;;;;;;;;;;5034182;28;19921;-24
2022/12/28 09:06:08;;;;;;;;;;;;;;;;;;5034504;28;19913;-27
2022/12/28 09:08:34;;;;;;;;;;;;;;;;;;5034570;28;19925;-27
2022/12/28 09:11:00;;;;;;;;;;;;;;;;;;5034440;28;19909;-28
2022/12/28 09:13:26;;;;;;;;;;;;;;;;;;5034380;28;19917;-28
2022/12/28 09:15:52;;;;;;;;;;;;;;;;;;5034726;28;19973;-25
2022/12/28 09:18:18;;;;;;;;;;;;;;;;;;5034589;28;19916;-27
2022/12/28 09:20:44;;;;;;;;;;;;;;;;;;5034599;28;20026;-28
2022/12/28 09:23:10;;;;;;;;;;;;;;;;;;5034383;28;19982;-28
2022/12/28 09:25:36;;;;;;;;;;;;;;;;;;5034637;28;20295;-26
2022/12/28 09:28:02;;;;;;;;;;;;;;;;;;5034533;28;19917;-26
2022/12/28 09:30:28;;;;;;;;;;;;;;;;;;5034618;28;19921;-30
2022/12/28 09:33:57;;;;;;;;;;;;;;;;;;5034838;28;19917;-26
2022/12/28 09:35:40;;;;;;;;;;;;;;;;;;5034557;28;19971;-27
2022/12/28 09:38:06;;;;;;;;;;;;;;;;;;5034715;28;20305;-28
2022/12/28 09:40:32;;;;;;;;;;;;;;;;;;5034675;28;19921;-24
2022/12/28 09:42:58;;;;;;;;;;;;;;;;;;5034042;28;19928;-31
2022/12/28 09:45:24;;;;;;;;;;;;;;;;;;5034167;28;19916;-28
2022/12/28 09:47:50;;;;;;;;;;;;;;;;;;5033872;28;19917;-27
2022/12/28 09:50:22;;;;;;;;;;;;;;;;;;5032912;28;19913;-30
2022/12/28 09:52:48;;;;;;;;;;;;;;;;;;5033977;28;20004;-29
2022/12/28 09:55:14;;;;;;;;;;;;;;;;;;5033864;28;19952;-26
2022/12/28 09:57:40;;;;;;;;;;;;;;;;;;5034005;28;19921;-27
2022/12/28 10:00:06;;;;;;;;;;;;;;;;;;5032911;28;19917;-25
2022/12/28 10:02:32;;;;;;;;;;;;;;;;;;5033717;28;19977;-28
2022/12/28 10:04:58;;;;;;;;;;;;;;;;;;5033584;28;19921;-28
2022/12/28 10:07:24;;;;;;;;;;;;;;;;;;5032912;28;20000;-29
2022/12/28 10:09:50;;;;;;;;;;;;;;;;;;5033862;28;20297;-24
2022/12/28 10:12:16;;;;;;;;;;;;;;;;;;5033991;28;19970;-33
2022/12/28 10:14:42;;;;;;;;;;;;;;;;;;5032747;28;19970;-30
2022/12/28 10:17:08;;;;;;;;;;;;;;;;;;5036737;28;20362;-28
2022/12/28 10:19:34;;;;;;;;;;;;;;;;;;5037695;28;20022;-29
2022/12/28 10:22:00;;;;;;;;;;;;;;;;;;5037671;28;19944;-27
2022/12/28 10:24:26;;;;;;;;;;;;;;;;;;5037514;28;19925;-26
2022/12/28 10:26:52;;;;;;;;;;;;;;;;;;5037615;28;20402;-28
2022/12/28 10:29:18;;;;;;;;;;;;;;;;;;5037680;28;20024;-29
2022/12/28 10:31:44;;;;;;;;;;;;;;;;;;5037768;28;20352;-29
2022/12/28 10:34:10;;;;;;;;;;;;;;;;;;5037527;28;19949;-28
2022/12/28 10:36:36;;;;;;;;;;;;;;;;;;5037477;28;19921;-29
2022/12/28 10:39:02;;;;;;;;;;;;;;;;;;5037619;28;19909;-29
2022/12/28 10:41:28;;;;;;;;;;;;;;;;;;5037489;28;19913;-27
2022/12/28 10:43:54;;;;;;;;;;;;;;;;;;5037586;28;19921;-29
2022/12/28 10:46:20;;;;;;;;;;;;;;;;;;5037827;28;20007;-29
2022/12/28 10:48:47;;;;;;;;;;;;;;;;;;5037455;28;20272;-27
2022/12/28 10:51:13;;;;;;;;;;;;;;;;;;5037604;28;19975;-29
2022/12/28 10:53:39;;;;;;;;;;;;;;;;;;5037439;28;20332;-28
2022/12/28 10:56:05;;;;;;;;;;;;;;;;;;5036372;28;19999;-32
2022/12/28 10:58:31;;;;;;;;;;;;;;;;;;5037695;28;19910;-27
2022/12/28 11:00:57;;;;;;;;;;;;;;;;;;5037214;28;19975;-28
2022/12/28 11:03:23;;;;;;;;;;;;;;;;;;5036968;28;20268;-29
2022/12/28 11:05:49;;;;;;;;;;;;;;;;;;5037310;28;19913;-26
2022/12/28 11:08:15;;;;;;;;;;;;;;;;;;5037007;28;19916;-29
2022/12/28 11:10:41;;;;;;;;;;;;;;;;;;5036979;28;19913;-24
2022/12/28 11:13:07;;;;;;;;;;;;;;;;;;5036816;28;19964;-30
2022/12/28 11:15:34;;;;;;;;;;;;;;;;;;5037165;28;19913;-29
2022/12/28 11:18:00;;;;;;;;;;;;;;;;;;5036899;28;19909;-30
2022/12/28 11:20:26;;;;;;;;;;;;;;;;;;5036732;28;19970;-27
2022/12/28 11:22:52;;;;;;;;;;;;;;;;;;5036806;28;19913;-26
2022/12/28 11:25:18;;;;;;;;;;;;;;;;;;5036845;28;19913;-24
2022/12/28 11:27:44;;;;;;;;;;;;;;;;;;5035410;28;19909;-24
2022/12/28 11:30:10;;;;;;;;;;;;;;;;;;5036992;28;19913;-27
2022/12/28 11:32:36;;;;;;;;;;;;;;;;;;5036571;28;19917;-27
2022/12/28 11:35:02;;;;;;;;;;;;;;;;;;5035639;28;19924;-28
2022/12/28 11:37:28;;;;;;;;;;;;;;;;;;5035837;28;20367;-27
2022/12/28 11:39:54;;;;;;;;;;;;;;;;;;5037134;28;19978;-24
2022/12/28 11:42:20;;;;;;;;;;;;;;;;;;5036432;28;20212;-25
2022/12/28 11:44:47;;;;;;;;;;;;;;;;;;5036301;28;19963;-26
2022/12/28 11:47:13;;;;;;;;;;;;;;;;;;5035402;28;20280;-27
2022/12/28 11:49:39;;;;;;;;;;;;;;;;;;5036442;28;19928;-29
2022/12/28 11:52:05;;;;;;;;;;;;;;;;;;5035566;28;19959;-29
2022/12/28 11:54:31;;;;;;;;;;;;;;;;;;5036367;28;19909;-30
2022/12/28 11:56:58;;;;;;;;;;;;;;;;;;5035857;28;20342;-29
2022/12/28 11:59:24;;;;;;;;;;;;;;;;;;5035304;28;19919;-30
2022/12/28 12:01:50;;;;;;;;;;;;;;;;;;5035588;28;19924;-28
2022/12/28 12:04:16;;;;;;;;;;;;;;;;;;5035046;28;19921;-27
2022/12/28 12:06:42;;;;;;;;;;;;;;;;;;5035667;28;19913;-24
2022/12/28 12:09:08;;;;;;;;;;;;;;;;;;5035561;28;20243;-25
2022/12/28 12:11:34;;;;;;;;;;;;;;;;;;5035274;28;19913;-31
2022/12/28 12:14:00;;;;;;;;;;;;;;;;;;5035223;28;19955;-26
2022/12/28 12:16:26;;;;;;;;;;;;;;;;;;5035055;28;20324;-24
2022/12/28 12:18:53;;;;;;;;;;;;;;;;;;5035100;28;19967;-30
2022/12/28 12:21:19;;;;;;;;;;;;;;;;;;5034697;28;19913;-27
2022/12/28 12:23:45;;;;;;;;;;;;;;;;;;5033483;28;19924;-28
2022/12/28 12:26:11;;;;;;;;;;;;;;;;;;5035447;28;19913;-30
2022/12/28 12:28:37;;;;;;;;;;;;;;;;;;5035530;28;19914;-28
2022/12/28 12:31:03;;;;;;;;;;;;;;;;;;5035562;28;19913;-29
2022/12/28 12:33:29;;;;;;;;;;;;;;;;;;5034397;28;20340;-24
2022/12/28 12:35:55;;;;;;;;;;;;;;;;;;5035409;28;20007;-30
2022/12/28 12:38:21;;;;;;;;;;;;;;;;;;5035189;28;19940;-29
2022/12/28 12:40:47;;;;;;;;;;;;;;;;;;5035399;28;19953;-26
2022/12/28 12:43:13;;;;;;;;;;;;;;;;;;5035387;28;19917;-31
2022/12/28 12:45:39;;;;;;;;;;;;;;;;;;5035478;28;19916;-26
2022/12/28 12:48:05;;;;;;;;;;;;;;;;;;5034564;28;19913;-28
2022/12/28 12:50:31;;;;;;;;;;;;;;;;;;5035441;28;19909;-33
2022/12/28 12:52:57;;;;;;;;;;;;;;;;;;5035381;28;19970;-27
2022/12/28 12:55:23;;;;;;;;;;;;;;;;;;5034277;28;20025;-32
2022/12/28 12:57:49;;;;;;;;;;;;;;;;;;5035413;28;19948;-29
2022/12/28 13:00:15;;;;;;;;;;;;;;;;;;5035596;28;20004;-25
2022/12/28 13:02:41;;;;;;;;;;;;;;;;;;5034930;28;20336;-30
2022/12/28 13:05:07;;;;;;;;;;;;;;;;;;5035539;28;19952;-29
2022/12/28 13:07:33;;;;;;;;;;;;;;;;;;5035039;28;19917;-25
2022/12/28 13:09:59;;;;;;;;;;;;;;;;;;5035064;28;19913;-31
2022/12/28 13:12:25;;;;;;;;;;;;;;;;;;5034886;28;19913;-30
2022/12/28 13:14:51;;;;;;;;;;;;;;;;;;5034958;28;19916;-24
2022/12/28 13:17:17;;;;;;;;;;;;;;;;;;5034818;28;19913;-26
2022/12/28 13:19:43;;;;;;;;;;;;;;;;;;5035082;28;20252;-28
2022/12/28 13:22:09;;;;;;;;;;;;;;;;;;5034645;28;19923;-30
2022/12/28 13:24:39;;;;;;;;;;;;;;;;;;5034963;28;19913;-31
2022/12/28 13:27:05;;;;;;;;;;;;;;;;;;5034797;28;19913;-29
2022/12/28 13:29:31;;;;;;;;;;;;;;;;;;5034762;28;20363;-27
2022/12/28 13:31:57;;;;;;;;;;;;;;;;;;5034656;28;19920;-30
2022/12/28 13:34:23;;;;;;;;;;;;;;;;;;5034680;28;20418;-27
2022/12/28 13:36:49;;;;;;;;;;;;;;;;;;5034734;28;19913;-27
2022/12/28 13:39:15;;;;;;;;;;;;;;;;;;5033771;28;19909;-24
2022/12/28 13:41:41;;;;;;;;;;;;;;;;;;5035023;28;19924;-29
2022/12/28 13:44:08;;;;;;;;;;;;;;;;;;5034374;28;20271;-26
2022/12/28 13:46:34;;;;;;;;;;;;;;;;;;5034683;28;19967;-26
2022/12/28 13:49:00;;;;;;;;;;;;;;;;;;5033237;28;19913;-30
2022/12/28 13:51:26;;;;;;;;;;;;;;;;;;5033588;28;19913;-26
2022/12/28 13:53:52;;;;;;;;;;;;;;;;;;5034450;28;19909;-28
2022/12/28 13:56:18;;;;;;;;;;;;;;;;;;5033210;28;19913;-29
2022/12/28 13:58:47;;;;;;;;;;;;;;;;;;5034156;28;19968;-29
2022/12/28 14:01:13;;;;;;;;;;;;;;;;;;5034199;28;19913;-29
2022/12/28 14:03:38;;;;;;;;;;;;;;;;;;5034013;28;19928;-28
2022/12/28 14:06:05;;;;;;;;;;;;;;;;;;5034713;28;19916;-25
2022/12/28 14:08:31;;;;;;;;;;;;;;;;;;5034463;28;19976;-30
2022/12/28 14:10:57;;;;;;;;;;;;;;;;;;5034467;28;19913;-27
2022/12/28 14:13:23;;;;;;;;;;;;;;;;;;5033233;28;19913;-27
2022/12/28 14:15:49;;;;;;;;;;;;;;;;;;5034203;28;20313;-32
2022/12/28 14:18:15;;;;;;;;;;;;;;;;;;5034526;28;19913;-32
2022/12/28 14:20:41;;;;;;;;;;;;;;;;;;5034307;28;19963;-27
2022/12/28 14:23:07;;;;;;;;;;;;;;;;;;5034009;28;20350;-27
2022/12/28 14:25:34;;;;;;;;;;;;;;;;;;5034030;28;19967;-30
2022/12/28 14:28:00;;;;;;;;;;;;;;;;;;5034449;28;19913;-26
2022/12/28 14:30:26;;;;;;;;;;;;;;;;;;5034140;28;19921;-28
2022/12/28 14:32:52;;;;;;;;;;;;;;;;;;5034047;28;20003;-28
2022/12/28 14:35:18;;;;;;;;;;;;;;;;;;5034412;28;20452;-27
2022/12/28 14:37:45;;;;;;;;;;;;;;;;;;5033870;28;19956;-29
2022/12/28 14:40:11;;;;;;;;;;;;;;;;;;5033937;28;19952;-27
2022/12/28 14:42:37;;;;;;;;;;;;;;;;;;5034008;28;20376;-28
2022/12/28 14:45:03;;;;;;;;;;;;;;;;;;5033054;28;19913;-31
2022/12/28 14:47:29;;;;;;;;;;;;;;;;;;5033007;28;20022;-32
2022/12/28 14:49:55;;;;;;;;;;;;;;;;;;5034101;28;19937;-33
2022/12/28 14:52:21;;;;;;;;;;;;;;;;;;5034042;28;20256;-25
2022/12/28 14:54:47;;;;;;;;;;;;;;;;;;5033996;28;19913;-32
2022/12/28 14:57:13;;;;;;;;;;;;;;;;;;5033977;28;19923;-25
2022/12/28 14:59:39;;;;;;;;;;;;;;;;;;5033751;28;20003;-29
2022/12/28 15:02:05;;;;;;;;;;;;;;;;;;5034509;28;19919;-29
2022/12/28 15:04:31;;;;;;;;;;;;;;;;;;5037058;28;19921;-31
2022/12/28 15:06:57;;;;;;;;;;;;;;;;;;5036179;28;19959;-25
2022/12/28 15:09:23;;;;;;;;;;;;;;;;;;5036293;28;19913;-30
2022/12/28 15:11:49;;;;;;;;;;;;;;;;;;5036235;28;19967;-26
2022/12/28 15:14:15;;;;;;;;;;;;;;;;;;5036184;28;19913;-28
2022/12/28 15:16:41;;;;;;;;;;;;;;;;;;5037548;28;19920;-25
2022/12/28 15:19:07;;;;;;;;;;;;;;;;;;5037266;28;19913;-26
2022/12/28 15:21:33;;;;;;;;;;;;;;;;;;5037139;28;19960;-33
2022/12/28 15:23:59;;;;;;;;;;;;;;;;;;5036989;28;19921;-27
2022/12/28 15:26:26;;;;;;;;;;;;;;;;;;5037228;28;20317;-28
2022/12/28 15:28:52;;;;;;;;;;;;;;;;;;5037100;28;19913;-28
2022/12/28 15:31:18;;;;;;;;;;;;;;;;;;5037042;28;19913;-28
2022/12/28 15:33:44;;;;;;;;;;;;;;;;;;5036949;28;20390;-26
2022/12/28 15:36:10;;;;;;;;;;;;;;;;;;5037398;28;19932;-31
2022/12/28 15:38:36;;;;;;;;;;;;;;;;;;5036800;28;20327;-29
2022/12/28 15:41:02;;;;;;;;;;;;;;;;;;5036744;28;19910;-31
2022/12/28 15:43:28;;;;;;;;;;;;;;;;;;5036426;28;20032;-32
2022/12/28 15:45:54;;;;;;;;;;;;;;;;;;5036582;28;19963;-29
2022/12/28 15:48:20;;;;;;;;;;;;;;;;;;5036416;28;20332;-31
2022/12/28 15:50:46;;;;;;;;;;;;;;;;;;5036228;28;20051;-26
2022/12/28 15:53:12;;;;;;;;;;;;;;;;;;5036270;28;19971;-29
2022/12/28 15:55:38;;;;;;;;;;;;;;;;;;5036538;28;20393;-28
2022/12/28 15:58:04;;;;;;;;;;;;;;;;;;5036345;28;19923;-31
2022/12/28 16:00:30;;;;;;;;;;;;;;;;;;5036415;28;19967;-30
2022/12/28 16:02:56;;;;;;;;;;;;;;;;;;5035992;28;19921;-29
2022/12/28 16:05:22;;;;;;;;;;;;;;;;;;5036521;28;19960;-29
2022/12/28 16:07:48;;;;;;;;;;;;;;;;;;5036231;28;19951;-27
2022/12/28 16:10:14;;;;;;;;;;;;;;;;;;5036038;28;19923;-28
2022/12/28 16:12:40;;;;;;;;;;;;;;;;;;5035937;28;19967;-34
2022/12/28 16:15:06;;;;;;;;;;;;;;;;;;5034728;28;19921;-29
2022/12/28 16:17:32;;;;;;;;;;;;;;;;;;5035429;28;20384;-26
2022/12/28 16:19:58;;;;;;;;;;;;;;;;;;5035862;28;20355;-28
2022/12/28 16:22:24;;;;;;;;;;;;;;;;;;5035342;28;20225;-26
2022/12/28 16:24:50;;;;;;;;;;;;;;;;;;5035318;28;19939;-26
2022/12/28 16:27:16;;;;;;;;;;;;;;;;;;5034294;28;19982;-30
2022/12/28 16:29:44;;;;;;;;;;;;;;;;;;5035300;28;19913;-29
2022/12/28 16:32:10;;;;;;;;;;;;;;;;;;5035423;28;19939;-27
2022/12/28 16:34:36;;;;;;;;;;;;;;;;;;5035572;28;20336;-25
2022/12/28 16:37:02;;;;;;;;;;;;;;;;;;5035412;28;19914;-29
2022/12/28 16:39:28;;;;;;;;;;;;;;;;;;5035861;28;19956;-32
2022/12/28 16:41:54;;;;;;;;;;;;;;;;;;5035892;28;20233;-28
2022/12/28 16:44:20;;;;;;;;;;;;;;;;;;5035543;28;19914;-31
2022/12/28 16:46:46;;;;;;;;;;;;;;;;;;5035392;28;19939;-30
2022/12/28 16:49:12;;;;;;;;;;;;;;;;;;5035446;28;19908;-32
2022/12/28 16:51:38;;;;;;;;;;;;;;;;;;5035342;28;19992;-27
2022/12/28 16:54:05;;;;;;;;;;;;;;;;;;5035430;28;19916;-31
2022/12/28 16:56:31;;;;;;;;;;;;;;;;;;5034889;28;20395;-28
2022/12/28 16:58:57;;;;;;;;;;;;;;;;;;5034231;28;19976;-34
2022/12/28 17:01:23;;;;;;;;;;;;;;;;;;5035319;28;19913;-27